Time;durP1;ratioP1;P1;durP2;ratioP2;P2;SDS_P1;SDS_P2;PMS_P1;PMS_P2;Temp;Humidity;BMP_temperature;BMP_pressure;BME280_temperature;BME280_humidity;BME280_pressure;Samples;Min_cycle;Max_cycle;Signal;HPM_P1;HPM_P2
2021/12/29 00:02:07;;;;;;;8.67;7.77;;;9.30;99.90;;;;;;2614114;54;20142;-79
2021/12/29 00:04:32;;;;;;;9.30;7.13;;;9.30;99.90;;;;;;2615047;39;20767;-76
2021/12/29 00:06:59;;;;;;;10.67;9.47;;;9.30;99.90;;;;;;2613059;54;20992;-79
2021/12/29 00:09:25;;;;;;;14.23;12.40;;;9.30;99.90;;;;;;2613292;54;20473;-78
2021/12/29 00:11:52;;;;;;;15.27;11.93;;;9.30;99.90;;;;;;2613631;54;20406;-78
2021/12/29 00:14:18;;;;;;;14.00;11.40;;;9.30;99.90;;;;;;2613590;39;21112;-77
2021/12/29 00:16:44;;;;;;;17.60;12.20;;;9.30;99.90;;;;;;2613095;54;20415;-75
2021/12/29 00:19:10;;;;;;;23.27;13.53;;;9.30;99.90;;;;;;2614308;54;20486;-77
2021/12/29 00:21:37;;;;;;;11.90;9.90;;;9.30;99.90;;;;;;2613857;47;20416;-78
2021/12/29 00:24:05;;;;;;;15.87;12.90;;;9.30;99.90;;;;;;2613662;54;20452;-76
2021/12/29 00:26:32;;;;;;;18.33;14.13;;;9.30;99.90;;;;;;2610422;54;20867;-79
2021/12/29 00:28:59;;;;;;;16.80;14.53;;;9.30;99.90;;;;;;2613551;54;20386;-78
2021/12/29 00:31:30;;;;;;;14.57;12.30;;;9.30;99.90;;;;;;2613953;54;21013;-75
2021/12/29 00:34:20;;;;;;;12.77;10.70;;;9.30;99.90;;;;;;2612600;54;20415;-79
2021/12/29 00:37:12;;;;;;;19.77;14.80;;;9.30;99.90;;;;;;2613178;39;20819;-75
2021/12/29 00:39:56;;;;;;;10.00;9.00;;;9.30;99.90;;;;;;2613159;54;21891;-78
2021/12/29 00:42:42;;;;;;;18.53;10.97;;;9.30;99.90;;;;;;2610755;54;21342;-78
2021/12/29 00:45:47;;;;;;;18.93;15.60;;;9.20;99.90;;;;;;2611975;54;20401;-79
2021/12/29 00:48:14;;;;;;;13.43;8.43;;;9.30;99.90;;;;;;2612160;54;20419;-79
2021/12/29 00:50:41;;;;;;;18.00;11.43;;;9.30;99.90;;;;;;2612541;54;20417;-80
2021/12/29 00:53:08;;;;;;;15.73;12.27;;;9.30;99.90;;;;;;2612620;54;20428;-80
2021/12/29 00:55:34;;;;;;;14.27;11.83;;;9.30;99.90;;;;;;2608714;54;20431;-76
2021/12/29 00:58:00;;;;;;;10.07;8.97;;;9.30;99.90;;;;;;2610650;54;20498;-74
2021/12/29 01:00:26;;;;;;;14.97;13.37;;;9.30;99.90;;;;;;2612279;54;20410;-77
2021/12/29 01:02:52;;;;;;;9.00;8.07;;;9.30;99.90;;;;;;2612563;39;20907;-74
2021/12/29 01:05:19;;;;;;;11.27;10.07;;;9.30;99.90;;;;;;2612485;47;20717;-79
2021/12/29 01:07:49;;;;;;;12.90;10.30;;;9.40;99.90;;;;;;2612579;47;20421;-79
2021/12/29 01:10:16;;;;;;;11.90;10.70;;;9.30;99.90;;;;;;2612454;54;20415;-78
2021/12/29 01:12:51;;;;;;;12.63;11.33;;;9.40;99.90;;;;;;2611925;54;20442;-80
2021/12/29 01:15:24;;;;;;;16.40;11.13;;;9.30;99.90;;;;;;2611665;51;20446;-80
2021/12/29 01:17:50;;;;;;;9.10;7.73;;;9.30;99.90;;;;;;2613995;54;20411;-78
2021/12/29 01:20:16;;;;;;;14.57;10.87;;;9.30;99.90;;;;;;2611945;54;20419;-78
2021/12/29 01:22:42;;;;;;;13.63;9.73;;;9.20;99.90;;;;;;2613064;54;21030;-76
2021/12/29 01:25:08;;;;;;;10.17;9.10;;;9.20;99.90;;;;;;2611936;54;20519;-77
2021/12/29 01:27:35;;;;;;;8.60;6.93;;;9.30;99.90;;;;;;2613012;46;20165;-79
2021/12/29 01:30:06;;;;;;;11.60;9.03;;;9.30;99.90;;;;;;2614054;54;21000;-80
2021/12/29 01:32:32;;;;;;;8.23;7.43;;;9.30;99.90;;;;;;2613839;54;20559;-79
2021/12/29 01:34:58;;;;;;;9.47;8.47;;;9.30;99.90;;;;;;2612728;54;20439;-77
2021/12/29 01:37:24;;;;;;;11.33;10.17;;;9.30;99.90;;;;;;2613877;47;20177;-81
2021/12/29 01:39:49;;;;;;;13.27;9.73;;;9.20;99.90;;;;;;2612264;54;20149;-80
2021/12/29 01:42:15;;;;;;;10.20;8.50;;;9.20;99.90;;;;;;2613702;47;20232;-80
2021/12/29 01:44:41;;;;;;;10.50;9.27;;;9.20;99.90;;;;;;2612414;54;20235;-80
2021/12/29 01:47:07;;;;;;;15.60;9.27;;;9.20;99.90;;;;;;2613182;54;20499;-80
2021/12/29 01:49:33;;;;;;;18.00;10.30;;;9.20;99.90;;;;;;2613343;54;20158;-78
2021/12/29 01:52:09;;;;;;;11.37;10.27;;;9.20;99.90;;;;;;2612597;54;20434;-79
2021/12/29 01:54:35;;;;;;;13.13;9.57;;;9.20;99.90;;;;;;2614046;54;20995;-79
2021/12/29 01:57:04;;;;;;;13.17;11.30;;;9.20;99.90;;;;;;2613651;39;20771;-79
2021/12/29 01:59:30;;;;;;;11.17;8.60;;;9.20;99.90;;;;;;2612936;54;20418;-79
2021/12/29 02:01:56;;;;;;;12.03;9.60;;;9.20;99.90;;;;;;2613236;54;20390;-80
2021/12/29 02:04:23;;;;;;;12.97;10.87;;;9.30;99.90;;;;;;2614092;54;20404;-79
2021/12/29 02:06:49;;;;;;;18.90;9.20;;;9.30;99.90;;;;;;2613835;54;20457;-79
2021/12/29 02:09:15;;;;;;;10.70;9.60;;;9.30;99.90;;;;;;2613698;39;20840;-78
2021/12/29 02:11:42;;;;;;;13.93;10.50;;;9.30;99.90;;;;;;2611800;54;20446;-79
2021/12/29 02:14:09;;;;;;;14.53;10.07;;;9.30;99.90;;;;;;2612918;54;20169;-76
2021/12/29 02:16:35;;;;;;;16.53;10.27;;;9.30;99.90;;;;;;2613498;47;20430;-81
2021/12/29 02:19:05;;;;;;;12.90;10.80;;;9.40;99.90;;;;;;2613095;39;20857;-79
2021/12/29 02:21:32;;;;;;;13.40;9.80;;;9.40;99.90;;;;;;2613239;39;20806;-81
2021/12/29 02:26:38;;;;;;;10.47;9.30;;;9.40;99.90;;;;;;2611763;54;20419;-78
2021/12/29 02:29:07;;;;;;;18.93;9.10;;;9.40;99.90;;;;;;2613770;54;20440;-78
2021/12/29 02:31:33;;;;;;;12.97;9.20;;;9.40;99.90;;;;;;2612327;54;21072;-76
2021/12/29 02:33:59;;;;;;;11.70;10.50;;;9.40;99.90;;;;;;2614332;39;20759;-79
2021/12/29 02:36:26;;;;;;;10.53;9.00;;;9.40;99.90;;;;;;2611991;54;20547;-75
2021/12/29 02:38:55;;;;;;;10.60;8.83;;;9.40;99.90;;;;;;2611940;54;20713;-79
2021/12/29 02:41:26;;;;;;;13.40;10.27;;;9.40;99.90;;;;;;2613083;39;20850;-81
2021/12/29 02:43:59;;;;;;;12.93;10.10;;;9.40;99.90;;;;;;2613082;54;20412;-80
2021/12/29 02:46:27;;;;;;;10.87;9.10;;;9.50;99.90;;;;;;2614159;39;21058;-78
2021/12/29 02:48:59;;;;;;;14.00;11.50;;;9.50;99.90;;;;;;2613896;39;20880;-78
2021/12/29 02:51:26;;;;;;;11.80;8.70;;;9.50;99.90;;;;;;2612830;51;20409;-80
2021/12/29 02:53:52;;;;;;;12.90;9.60;;;9.50;99.90;;;;;;2614655;39;20786;-79
2021/12/29 02:56:18;;;;;;;16.60;9.40;;;9.50;99.90;;;;;;2612691;54;20437;-79
2021/12/29 02:58:44;;;;;;;13.87;10.70;;;9.50;99.90;;;;;;2612332;47;20715;-78
2021/12/29 03:01:13;;;;;;;15.63;10.53;;;9.50;99.90;;;;;;2612519;54;20415;-80
2021/12/29 03:03:39;;;;;;;13.17;10.83;;;9.50;99.90;;;;;;2613511;54;20407;-79
2021/12/29 03:06:07;;;;;;;10.30;8.50;;;9.50;99.90;;;;;;2612872;54;20415;-78
2021/12/29 03:08:33;;;;;;;16.13;9.20;;;9.40;99.90;;;;;;2613052;54;20431;-80
2021/12/29 03:10:59;;;;;;;13.20;10.63;;;9.40;99.90;;;;;;2613191;54;20414;-78
2021/12/29 03:13:31;;;;;;;7.20;5.93;;;9.40;99.90;;;;;;2614015;54;20383;-78
2021/12/29 03:15:57;;;;;;;14.03;9.03;;;9.30;99.90;;;;;;2614934;54;20422;-79
2021/12/29 03:18:23;;;;;;;12.13;8.27;;;9.30;99.90;;;;;;2612582;54;20439;-79
2021/12/29 03:20:49;;;;;;;14.67;9.20;;;9.40;99.90;;;;;;2612585;54;20527;-79
2021/12/29 03:23:17;;;;;;;11.57;8.37;;;9.40;99.90;;;;;;2613832;39;20577;-80
2021/12/29 03:25:43;;;;;;;8.90;6.47;;;9.30;99.90;;;;;;2614437;39;21101;-80
2021/12/29 03:28:09;;;;;;;12.60;8.90;;;9.30;99.90;;;;;;2613642;47;20435;-77
2021/12/29 03:30:39;;;;;;;6.97;6.27;;;9.20;99.90;;;;;;2612782;54;20444;-80
2021/12/29 03:33:09;;;;;;;11.67;8.70;;;9.20;99.90;;;;;;2614006;54;20404;-79
2021/12/29 03:35:45;;;;;;;10.23;9.00;;;9.20;99.90;;;;;;2613033;31;20882;-80
2021/12/29 03:38:14;;;;;;;9.97;5.17;;;9.10;99.90;;;;;;2611522;48;20431;-80
2021/12/29 03:40:41;;;;;;;10.70;8.20;;;9.10;99.90;;;;;;2613714;54;20494;-78
2021/12/29 03:43:08;;;;;;;11.20;9.07;;;9.20;99.90;;;;;;2614009;47;20423;-79
2021/12/29 03:45:37;;;;;;;12.17;8.90;;;9.20;99.90;;;;;;2614707;54;20481;-79
2021/12/29 03:48:07;;;;;;;10.30;8.40;;;9.20;99.90;;;;;;2614329;47;20428;-79
2021/12/29 03:50:34;;;;;;;11.20;9.27;;;9.20;99.90;;;;;;2613553;54;20486;-79
2021/12/29 03:53:00;;;;;;;13.47;8.80;;;9.20;99.90;;;;;;2614881;54;20402;-78
2021/12/29 03:55:25;;;;;;;6.50;5.10;;;9.20;99.90;;;;;;2612264;39;20936;-75
2021/12/29 03:57:51;;;;;;;10.47;7.10;;;9.20;99.90;;;;;;2612970;54;20244;-80
2021/12/29 04:00:20;;;;;;;9.20;6.90;;;9.20;99.90;;;;;;2613145;39;20553;-79
2021/12/29 04:02:47;;;;;;;11.00;9.10;;;9.10;99.90;;;;;;2611974;54;20420;-76
2021/12/29 04:05:19;;;;;;;10.53;9.03;;;9.10;99.90;;;;;;2614326;54;20654;-78
2021/12/29 04:07:46;;;;;;;10.03;8.97;;;9.10;99.90;;;;;;2612023;39;20938;-80
2021/12/29 04:10:12;;;;;;;9.60;7.83;;;9.10;99.90;;;;;;2609922;54;20400;-78
2021/12/29 04:12:42;;;;;;;13.43;9.50;;;9.10;99.90;;;;;;2614043;47;20968;-74
2021/12/29 04:15:10;;;;;;;6.90;6.20;;;9.10;99.90;;;;;;2614092;39;21205;-77
2021/12/29 04:17:37;;;;;;;12.17;8.60;;;9.10;99.90;;;;;;2611769;54;20387;-78
2021/12/29 04:22:50;;;;;;;13.40;10.90;;;9.10;99.90;;;;;;2613618;46;20433;-80
2021/12/29 04:25:18;;;;;;;16.17;10.43;;;9.10;99.90;;;;;;2608157;54;20486;-79
2021/12/29 04:27:45;;;;;;;14.53;9.70;;;9.10;99.90;;;;;;2612983;54;20147;-76
2021/12/29 04:30:11;;;;;;;10.60;8.57;;;9.10;99.90;;;;;;2611496;54;20438;-80
2021/12/29 04:32:37;;;;;;;17.23;11.30;;;9.10;99.90;;;;;;2613168;54;20393;-79
2021/12/29 04:35:04;;;;;;;15.20;8.53;;;9.10;99.90;;;;;;2613621;54;20241;-77
2021/12/29 04:37:30;;;;;;;14.47;8.67;;;9.10;99.90;;;;;;2614251;54;20960;-77
2021/12/29 04:39:55;;;;;;;12.63;8.57;;;9.10;99.90;;;;;;2612928;54;20395;-78
2021/12/29 04:42:21;;;;;;;17.30;10.97;;;9.20;99.90;;;;;;2614050;54;20415;-79
2021/12/29 04:44:47;;;;;;;15.00;7.67;;;9.10;99.90;;;;;;2614018;39;20507;-78
2021/12/29 04:47:13;;;;;;;16.07;7.87;;;9.10;99.90;;;;;;2612530;54;20154;-77
2021/12/29 04:49:41;;;;;;;8.00;6.10;;;9.10;99.90;;;;;;2613502;47;20186;-78
2021/12/29 04:52:10;;;;;;;11.93;8.77;;;9.10;99.90;;;;;;2614220;47;20157;-79
2021/12/29 04:54:37;;;;;;;10.13;7.03;;;9.10;99.90;;;;;;2612910;54;20431;-79
2021/12/29 04:57:04;;;;;;;11.17;8.37;;;9.10;99.90;;;;;;2609874;54;20414;-78
2021/12/29 04:59:29;;;;;;;10.67;7.80;;;9.10;99.90;;;;;;2613427;54;20399;-78
2021/12/29 05:01:56;;;;;;;9.60;8.20;;;9.10;99.90;;;;;;2614192;54;20428;-79
2021/12/29 05:04:30;;;;;;;6.20;5.47;;;9.20;99.90;;;;;;2613779;54;20388;-79
2021/12/29 05:09:40;;;;;;;12.20;7.40;;;9.10;99.90;;;;;;2613837;54;20402;-79
2021/12/29 05:12:07;;;;;;;10.07;7.37;;;9.20;99.90;;;;;;2612280;54;20423;-81
2021/12/29 05:14:34;;;;;;;10.17;6.93;;;9.10;99.90;;;;;;2614065;54;20417;-79
2021/12/29 05:17:00;;;;;;;11.80;6.17;;;9.10;99.90;;;;;;2612420;47;20394;-79
2021/12/29 05:19:26;;;;;;;9.10;6.07;;;9.10;99.90;;;;;;2613321;54;20992;-79
2021/12/29 05:21:53;;;;;;;7.77;6.97;;;9.10;99.90;;;;;;2613021;54;20475;-80
2021/12/29 05:24:19;;;;;;;8.00;6.80;;;9.10;99.90;;;;;;2612793;54;20191;-79
2021/12/29 05:26:44;;;;;;;6.70;5.17;;;9.10;99.90;;;;;;2613606;54;21045;-79
2021/12/29 05:29:10;;;;;;;12.10;7.07;;;9.10;99.90;;;;;;2614528;54;20423;-78
2021/12/29 05:31:36;;;;;;;8.87;7.23;;;9.10;99.90;;;;;;2612744;50;20406;-79
2021/12/29 05:34:02;;;;;;;16.60;7.37;;;9.10;99.90;;;;;;2611546;54;20392;-79
2021/12/29 05:36:28;;;;;;;11.27;8.60;;;9.10;99.90;;;;;;2612401;47;20481;-77
2021/12/29 05:38:57;;;;;;;12.00;7.20;;;9.10;99.90;;;;;;2614226;54;20405;-79
2021/12/29 05:41:24;;;;;;;8.90;7.20;;;9.10;99.90;;;;;;2614070;54;20427;-78
2021/12/29 05:43:49;;;;;;;12.23;8.57;;;9.10;99.90;;;;;;2613359;54;20406;-77
2021/12/29 05:46:16;;;;;;;13.87;9.07;;;9.10;99.90;;;;;;2614646;31;20854;-80
2021/12/29 05:48:42;;;;;;;12.00;9.33;;;9.10;99.90;;;;;;2613954;54;20160;-79
2021/12/29 05:51:11;;;;;;;10.57;8.17;;;9.10;99.90;;;;;;2613409;54;21012;-75
2021/12/29 05:53:41;;;;;;;14.70;9.00;;;9.10;99.90;;;;;;2613462;39;20822;-79
2021/12/29 05:56:08;;;;;;;12.40;9.20;;;9.10;99.90;;;;;;2612679;54;20427;-78
2021/12/29 05:58:35;;;;;;;17.90;11.50;;;9.00;99.90;;;;;;2613873;54;20411;-79
2021/12/29 06:01:02;;;;;;;14.27;9.50;;;9.10;99.90;;;;;;2612791;54;20419;-75
2021/12/29 06:03:28;;;;;;;12.23;9.50;;;9.10;99.90;;;;;;2613562;31;20917;-80
2021/12/29 06:05:54;;;;;;;15.90;10.27;;;9.10;99.90;;;;;;2612220;47;20412;-79
2021/12/29 06:08:19;;;;;;;13.87;10.40;;;9.10;99.90;;;;;;2614445;54;20180;-80
2021/12/29 06:10:45;;;;;;;13.67;9.30;;;9.10;99.90;;;;;;2613203;54;20412;-78
2021/12/29 06:13:13;;;;;;;14.33;8.60;;;9.10;99.90;;;;;;2612706;54;20482;-79
2021/12/29 06:15:38;;;;;;;11.43;9.10;;;9.10;99.90;;;;;;2612910;54;20943;-76
2021/12/29 06:18:05;;;;;;;16.53;8.20;;;9.10;99.90;;;;;;2614030;54;20397;-79
2021/12/29 06:20:30;;;;;;;10.03;8.10;;;9.10;99.90;;;;;;2613143;54;20396;-80
2021/12/29 06:22:56;;;;;;;9.33;5.40;;;9.10;99.90;;;;;;2613448;54;20427;-79
2021/12/29 06:25:22;;;;;;;10.87;8.07;;;9.10;99.90;;;;;;2612781;54;20494;-79
2021/12/29 06:27:49;;;;;;;13.57;8.47;;;9.10;99.90;;;;;;2612171;54;20147;-77
2021/12/29 06:30:17;;;;;;;10.20;8.23;;;9.00;99.90;;;;;;2612761;54;20419;-79
2021/12/29 06:32:44;;;;;;;13.10;6.00;;;9.00;99.90;;;;;;2612608;54;20455;-79
2021/12/29 06:35:13;;;;;;;9.33;6.83;;;8.90;99.90;;;;;;2612455;54;20420;-78
2021/12/29 06:37:39;;;;;;;6.23;5.60;;;8.90;99.90;;;;;;2613072;46;20453;-79
2021/12/29 06:40:06;;;;;;;6.73;4.57;;;8.90;99.90;;;;;;2613259;39;20779;-80
2021/12/29 06:42:32;;;;;;;20.50;7.40;;;8.80;99.90;;;;;;2614135;54;20167;-79
2021/12/29 06:44:58;;;;;;;10.20;6.50;;;8.80;99.90;;;;;;2612455;39;20765;-79
2021/12/29 06:47:24;;;;;;;11.33;8.30;;;8.90;99.90;;;;;;2613072;39;20805;-78
2021/12/29 06:49:50;;;;;;;9.00;7.00;;;8.80;99.90;;;;;;2614407;54;20181;-78
2021/12/29 06:52:16;;;;;;;8.00;7.20;;;8.90;99.90;;;;;;2613660;54;20387;-79
2021/12/29 06:54:44;;;;;;;6.37;4.87;;;8.80;99.90;;;;;;2613383;54;20761;-79
2021/12/29 06:57:10;;;;;;;10.60;8.17;;;8.80;99.90;;;;;;2613660;54;20410;-79
2021/12/29 06:59:36;;;;;;;11.23;8.80;;;8.80;99.90;;;;;;2612893;54;20471;-79
2021/12/29 07:02:02;;;;;;;11.37;8.77;;;8.90;99.90;;;;;;2614818;47;20431;-79
2021/12/29 07:04:28;;;;;;;7.57;6.07;;;8.90;99.90;;;;;;2615447;39;20557;-79
2021/12/29 07:06:55;;;;;;;16.00;10.03;;;8.90;99.90;;;;;;2614283;47;20946;-78
2021/12/29 07:09:21;;;;;;;14.10;10.53;;;8.90;99.90;;;;;;2613701;39;20833;-79
2021/12/29 07:11:48;;;;;;;14.50;11.13;;;8.90;99.90;;;;;;2613605;54;20513;-79
2021/12/29 07:14:14;;;;;;;15.73;10.13;;;9.00;99.90;;;;;;2611844;54;20419;-79
2021/12/29 07:16:44;;;;;;;15.20;10.83;;;9.00;99.90;;;;;;2613027;54;20454;-76
2021/12/29 07:19:10;;;;;;;16.17;11.60;;;9.00;99.90;;;;;;2614061;54;20158;-78
2021/12/29 07:21:37;;;;;;;16.73;11.83;;;9.00;99.90;;;;;;2614546;54;20414;-78
2021/12/29 07:24:03;;;;;;;16.00;11.07;;;9.00;99.90;;;;;;2614025;54;20442;-77
2021/12/29 07:26:28;;;;;;;16.33;12.53;;;9.00;99.90;;;;;;2614610;39;20887;-77
2021/12/29 07:28:56;;;;;;;13.80;9.57;;;9.00;99.90;;;;;;2612837;54;20450;-80
2021/12/29 07:31:22;;;;;;;13.93;9.77;;;9.00;99.90;;;;;;2614025;54;20145;-78
2021/12/29 07:33:48;;;;;;;19.97;12.93;;;8.90;99.90;;;;;;2610951;54;20383;-79
2021/12/29 07:36:14;;;;;;;18.93;15.27;;;9.00;99.90;;;;;;2613076;54;20407;-79
2021/12/29 07:38:41;;;;;;;18.00;10.70;;;9.00;99.90;;;;;;2611814;39;20872;-77
2021/12/29 07:41:08;;;;;;;14.70;10.33;;;9.00;99.90;;;;;;2609813;46;20435;-78
2021/12/29 07:43:35;;;;;;;19.83;12.50;;;9.00;99.90;;;;;;2613646;39;20950;-78
2021/12/29 07:46:02;;;;;;;14.80;9.73;;;9.00;99.90;;;;;;2611471;39;21267;-78
2021/12/29 07:48:30;;;;;;;14.27;11.13;;;9.00;99.90;;;;;;2611563;54;20479;-78
2021/12/29 07:51:00;;;;;;;20.70;11.57;;;9.00;99.90;;;;;;2613279;54;20445;-80
2021/12/29 07:53:26;;;;;;;18.23;13.90;;;9.00;99.90;;;;;;2614623;54;20430;-79
2021/12/29 07:55:53;;;;;;;16.00;11.03;;;9.00;99.90;;;;;;2612401;49;20563;-79
2021/12/29 07:58:19;;;;;;;19.07;12.13;;;9.00;99.90;;;;;;2614308;47;20170;-80
2021/12/29 08:00:47;;;;;;;23.03;12.70;;;9.00;99.90;;;;;;2612876;54;20437;-79
2021/12/29 08:03:14;;;;;;;20.13;13.57;;;9.00;99.90;;;;;;2612997;39;21114;-78
2021/12/29 08:05:41;;;;;;;20.20;13.80;;;9.00;99.90;;;;;;2613206;54;20435;-76
2021/12/29 08:08:07;;;;;;;20.33;13.73;;;9.10;99.90;;;;;;2610692;54;20988;-79
2021/12/29 08:10:35;;;;;;;22.80;16.13;;;9.10;99.90;;;;;;2614212;54;20426;-79
2021/12/29 08:13:04;;;;;;;23.93;15.60;;;9.00;99.90;;;;;;2615075;54;20975;-79
2021/12/29 08:15:32;;;;;;;19.60;12.27;;;9.00;99.90;;;;;;2614624;54;20972;-79
2021/12/29 08:17:58;;;;;;;18.17;13.03;;;9.00;99.90;;;;;;2613253;54;20448;-78
2021/12/29 08:20:25;;;;;;;21.87;16.83;;;8.90;99.90;;;;;;2612991;54;20409;-78
2021/12/29 08:22:52;;;;;;;21.70;15.83;;;9.00;99.90;;;;;;2612063;54;20973;-78
2021/12/29 08:25:18;;;;;;;24.73;14.00;;;9.00;99.90;;;;;;2612609;54;21031;-80
2021/12/29 08:27:44;;;;;;;25.87;15.93;;;9.00;99.90;;;;;;2612870;47;20412;-77
2021/12/29 08:30:11;;;;;;;31.33;17.70;;;9.10;99.90;;;;;;2608057;47;20431;-77
2021/12/29 08:32:37;;;;;;;26.77;18.17;;;9.00;99.90;;;;;;2611381;54;20414;-79
2021/12/29 08:35:03;;;;;;;25.60;17.30;;;9.10;99.90;;;;;;2611421;54;20523;-79
2021/12/29 08:37:29;;;;;;;28.07;19.20;;;9.20;99.90;;;;;;2612585;54;20391;-79
2021/12/29 08:39:55;;;;;;;31.43;19.10;;;9.20;99.90;;;;;;2612410;54;20410;-79
2021/12/29 08:42:22;;;;;;;27.30;17.10;;;9.20;99.90;;;;;;2614353;39;20794;-79
2021/12/29 08:44:48;;;;;;;20.03;12.37;;;9.10;99.90;;;;;;2613264;54;20427;-79
2021/12/29 08:47:14;;;;;;;17.67;10.63;;;9.10;99.90;;;;;;2612454;54;20968;-78
2021/12/29 08:49:40;;;;;;;26.03;13.83;;;9.10;99.90;;;;;;2612893;54;20396;-79
2021/12/29 08:52:06;;;;;;;27.10;17.73;;;9.10;99.90;;;;;;2611782;47;20994;-79
2021/12/29 08:54:34;;;;;;;28.37;18.47;;;9.10;99.90;;;;;;2611641;54;20396;-77
2021/12/29 08:57:00;;;;;;;27.50;15.80;;;9.20;99.90;;;;;;2610909;54;20369;-77
2021/12/29 08:59:26;;;;;;;27.97;20.70;;;9.20;99.90;;;;;;2612140;54;20412;-78
2021/12/29 09:01:52;;;;;;;27.63;19.13;;;9.20;99.90;;;;;;2610261;39;20701;-76
2021/12/29 09:04:18;;;;;;;26.30;17.90;;;9.20;99.90;;;;;;2615133;39;20803;-79
2021/12/29 09:06:44;;;;;;;23.90;16.53;;;9.20;99.90;;;;;;2613749;54;20419;-77
2021/12/29 09:09:10;;;;;;;22.30;15.30;;;9.20;99.90;;;;;;2613968;54;20426;-74
2021/12/29 09:11:36;;;;;;;27.07;17.00;;;9.20;99.90;;;;;;2611277;54;20452;-77
2021/12/29 09:14:03;;;;;;;30.93;18.80;;;9.20;99.90;;;;;;2612494;31;21025;-78
2021/12/29 09:16:29;;;;;;;25.80;18.10;;;9.30;99.90;;;;;;2612893;54;20472;-79
2021/12/29 09:18:55;;;;;;;34.47;21.00;;;9.40;99.90;;;;;;2613515;47;20443;-78
2021/12/29 09:21:21;;;;;;;25.10;17.73;;;9.40;99.90;;;;;;2614166;39;20467;-79
2021/12/29 09:23:47;;;;;;;27.13;15.80;;;9.40;99.90;;;;;;2613610;54;20182;-79
2021/12/29 09:26:16;;;;;;;25.00;16.77;;;9.50;99.90;;;;;;2613346;47;20443;-78
2021/12/29 09:28:44;;;;;;;28.73;17.67;;;9.50;99.90;;;;;;2608819;39;20940;-79
2021/12/29 09:31:10;;;;;;;27.30;17.27;;;9.40;99.90;;;;;;2610430;54;21489;-76
2021/12/29 09:33:38;;;;;;;30.73;17.33;;;9.50;99.90;;;;;;2611604;54;20411;-77
2021/12/29 09:36:04;;;;;;;16.93;10.50;;;9.40;99.90;;;;;;2607273;54;20416;-79
2021/12/29 09:38:34;;;;;;;13.20;10.23;;;9.40;99.90;;;;;;2612873;54;20395;-80
2021/12/29 09:41:02;;;;;;;26.70;17.53;;;9.40;99.90;;;;;;2611832;54;20438;-79
2021/12/29 09:43:28;;;;;;;26.70;19.70;;;9.40;99.90;;;;;;2612647;54;20446;-81
2021/12/29 09:45:54;;;;;;;28.80;18.77;;;9.50;99.90;;;;;;2612441;54;20399;-79
2021/12/29 09:48:21;;;;;;;26.30;17.40;;;9.50;99.90;;;;;;2611466;54;21092;-77
2021/12/29 09:50:47;;;;;;;28.70;15.30;;;9.60;99.90;;;;;;2613082;39;20795;-79
2021/12/29 09:53:13;;;;;;;27.50;17.67;;;9.60;99.90;;;;;;2612226;54;21077;-80
2021/12/29 09:55:41;;;;;;;34.43;17.87;;;9.60;99.90;;;;;;2609935;39;23182;-79
2021/12/29 09:58:07;;;;;;;22.87;14.80;;;9.70;99.90;;;;;;2612304;54;20427;-79
2021/12/29 10:00:47;;;;;;;26.33;17.70;;;9.70;99.90;;;;;;2630379;36;20444;-80
2021/12/29 10:03:15;;;;;;;29.87;18.17;;;9.70;99.90;;;;;;2610342;47;20421;-78
2021/12/29 10:05:43;;;;;;;23.63;17.67;;;9.80;99.90;;;;;;2607405;39;20818;-80
2021/12/29 10:08:22;;;;;;;29.53;16.70;;;9.80;99.90;;;;;;2612518;47;20427;-79
2021/12/29 10:10:52;;;;;;;29.57;14.80;;;9.80;99.90;;;;;;2608647;54;20431;-79
2021/12/29 10:13:18;;;;;;;21.40;17.43;;;9.80;99.90;;;;;;2612796;49;20475;-79
2021/12/29 10:15:50;;;;;;;23.87;16.67;;;9.70;99.90;;;;;;2611326;39;21266;-80
2021/12/29 10:18:19;;;;;;;28.40;16.73;;;9.80;99.90;;;;;;2613916;39;20829;-78
2021/12/29 10:20:56;;;;;;;30.63;16.03;;;9.90;99.90;;;;;;2610450;54;20826;-78
2021/12/29 10:23:28;;;;;;;13.70;9.87;;;10.00;99.90;;;;;;2610506;54;20459;-76
2021/12/29 10:25:56;;;;;;;22.07;16.60;;;10.00;99.90;;;;;;2610525;47;21270;-81
2021/12/29 10:28:28;;;;;;;24.73;17.10;;;9.90;99.90;;;;;;2610269;54;20506;-81
2021/12/29 10:31:00;;;;;;;19.73;14.83;;;10.00;99.90;;;;;;2611438;39;20797;-82
2021/12/29 10:33:34;;;;;;;21.63;15.43;;;9.90;99.90;;;;;;2612455;54;20451;-79
2021/12/29 10:36:19;;;;;;;15.20;13.47;;;9.90;99.90;;;;;;2609569;54;20419;-81
2021/12/29 10:38:49;;;;;;;19.57;13.37;;;10.00;99.90;;;;;;2612771;54;21315;-79
2021/12/29 10:41:15;;;;;;;18.83;13.17;;;10.10;99.90;;;;;;2610634;54;20405;-80
2021/12/29 10:43:50;;;;;;;18.77;12.53;;;10.10;99.90;;;;;;2612565;54;20415;-81
2021/12/29 10:46:22;;;;;;;22.13;13.30;;;10.20;99.90;;;;;;2609743;47;20422;-80
2021/12/29 10:48:50;;;;;;;16.33;13.17;;;10.10;99.90;;;;;;2610444;54;20433;-82
2021/12/29 10:51:17;;;;;;;18.77;12.50;;;10.30;99.90;;;;;;2613549;54;20432;-80
2021/12/29 10:54:11;;;;;;;16.53;13.70;;;10.40;99.90;;;;;;2602709;54;20459;-81
2021/12/29 10:57:03;;;;;;;27.30;13.33;;;10.50;99.90;;;;;;2607405;39;21027;-80
2021/12/29 10:59:42;;;;;;;16.43;12.17;;;10.30;99.90;;;;;;2607214;54;20480;-78
2021/12/29 11:02:29;;;;;;;13.97;10.77;;;10.10;99.90;;;;;;2607231;54;20397;-78
2021/12/29 11:05:10;;;;;;;11.47;9.80;;;10.00;99.90;;;;;;2609087;54;20471;-75
2021/12/29 11:07:50;;;;;;;21.40;11.50;;;10.00;99.90;;;;;;2609491;54;20411;-79
2021/12/29 11:10:29;;;;;;;13.33;9.40;;;10.00;99.90;;;;;;2608109;39;20643;-80
2021/12/29 11:13:09;;;;;;;14.57;10.80;;;10.00;99.90;;;;;;2608606;39;20853;-78
2021/12/29 11:15:51;;;;;;;11.00;8.50;;;10.00;99.90;;;;;;2610472;54;20426;-80
2021/12/29 11:18:49;;;;;;;10.00;9.00;;;10.00;99.90;;;;;;2608906;54;20441;-79
2021/12/29 11:21:35;;;;;;;13.10;10.50;;;10.00;99.90;;;;;;2606826;54;20423;-77
2021/12/29 13:58:03;;;;;;;13.20;7.40;;;10.40;99.90;;;;;;2606879;54;20405;-79
2021/12/29 14:00:31;;;;;;;9.47;6.50;;;10.40;99.90;;;;;;2607830;39;20894;-82
2021/12/29 14:02:57;;;;;;;9.50;7.07;;;10.30;99.90;;;;;;2610075;54;20423;-81
2021/12/29 14:05:46;;;;;;;9.27;6.47;;;10.20;99.90;;;;;;2609769;54;20550;-79
2021/12/29 14:08:22;;;;;;;11.97;7.20;;;10.30;99.90;;;;;;2610875;54;20467;-81
2021/12/29 14:14:08;;;;;;;9.53;6.10;;;10.20;99.90;;;;;;2606527;54;20526;-79
2021/12/29 14:16:44;;;;;;;15.43;7.20;;;10.30;99.90;;;;;;2639756;36;21042;-81
2021/12/29 14:19:10;;;;;;;8.40;6.70;;;10.30;99.90;;;;;;2607980;54;21122;-78
2021/12/29 14:21:38;;;;;;;9.03;6.57;;;10.10;99.90;;;;;;2611667;47;20423;-80
2021/12/29 14:24:10;;;;;;;10.70;7.03;;;10.00;99.90;;;;;;2610861;54;20422;-80
2021/12/29 14:26:45;;;;;;;7.80;6.37;;;10.00;99.90;;;;;;2610822;54;20390;-82
2021/12/29 14:29:16;;;;;;;11.77;8.10;;;10.00;99.90;;;;;;2612270;54;20398;-80
2021/12/29 14:31:44;;;;;;;14.07;6.87;;;10.00;99.90;;;;;;2612278;47;20431;-81
2021/12/29 14:34:13;;;;;;;7.17;6.40;;;10.00;99.90;;;;;;2613410;54;20422;-77
2021/12/29 14:36:48;;;;;;;7.33;6.53;;;10.20;99.90;;;;;;2603035;47;20443;-77
2021/12/29 14:39:22;;;;;;;11.63;7.40;;;10.10;99.90;;;;;;2610423;47;20931;-77
2021/12/29 14:42:00;;;;;;;8.80;6.27;;;10.10;99.90;;;;;;2610340;54;20433;-77
2021/12/29 14:44:26;;;;;;;8.50;6.67;;;10.00;99.90;;;;;;2610509;54;20527;-79
2021/12/29 14:46:59;;;;;;;8.70;6.90;;;10.00;99.90;;;;;;2610786;54;20514;-79
2021/12/29 14:49:32;;;;;;;8.57;6.53;;;9.90;99.90;;;;;;2613832;39;20805;-83
2021/12/29 14:51:59;;;;;;;7.07;5.90;;;9.80;99.90;;;;;;2614105;54;20420;-80
2021/12/29 14:54:41;;;;;;;8.37;7.50;;;9.80;99.90;;;;;;2610673;54;20467;-81
2021/12/29 14:57:16;;;;;;;6.63;5.97;;;9.80;99.90;;;;;;2614252;54;20614;-76
2021/12/29 14:59:44;;;;;;;6.97;5.27;;;9.80;99.90;;;;;;2613508;47;20425;-75
2021/12/29 15:02:17;;;;;;;9.03;5.73;;;9.70;99.90;;;;;;2610695;54;20503;-82
2021/12/29 15:04:56;;;;;;;11.93;5.20;;;9.70;99.90;;;;;;2611668;39;20837;-79
2021/12/29 15:07:23;;;;;;;5.87;4.07;;;9.70;99.90;;;;;;2613382;54;20419;-80
2021/12/29 15:09:59;;;;;;;6.13;5.53;;;9.60;99.90;;;;;;2614118;54;20415;-80
2021/12/29 15:12:27;;;;;;;7.47;4.97;;;9.60;99.90;;;;;;2614255;54;20525;-81
2021/12/29 15:14:54;;;;;;;6.60;5.43;;;9.70;99.90;;;;;;2614505;39;20832;-77
2021/12/29 15:17:20;;;;;;;7.97;4.63;;;9.70;99.90;;;;;;2614841;39;21003;-82
2021/12/29 15:19:46;;;;;;;11.90;5.70;;;9.80;99.90;;;;;;2613931;54;20543;-80
2021/12/29 15:22:12;;;;;;;5.23;4.73;;;9.70;99.90;;;;;;2613975;54;20403;-74
2021/12/29 15:24:38;;;;;;;6.70;5.10;;;9.60;99.90;;;;;;2613803;39;20895;-80
2021/12/29 15:27:05;;;;;;;5.87;5.17;;;9.60;99.90;;;;;;2614338;39;21187;-80
2021/12/29 15:29:31;;;;;;;5.20;4.40;;;9.50;99.90;;;;;;2614044;47;21067;-80
2021/12/29 15:31:58;;;;;;;7.30;5.00;;;9.40;99.90;;;;;;2613818;54;20395;-80
2021/12/29 15:34:26;;;;;;;6.13;4.50;;;9.50;99.90;;;;;;2609987;54;20536;-80
2021/12/29 15:36:53;;;;;;;14.07;4.53;;;9.50;99.90;;;;;;2613341;51;20408;-80